PWSweather.com
Personal Weather Stations
Station Observations
KNHRINDG3
Converse Meadow Pond, Rindge, NH 03461

Converse Meadow PondRindge, NH 03461

Lat: 42.74, Lon: -71.98

Elevation: 1060

Station Type: Davis Vantage Pro 2

http://nhwoodworker.com/weather/index.php

High Low Average
Temperature 56.1°F13.4°F 53.9°F12.2°F 54.7°F12.6°F
Dew Point 55.9°F13.3°F 53.6°F12.0°F 54.5°F12.5°F
Winds 1.0 mph NNW1.6 mph NNW Calm Calm Calm Calm
Wind Gusts 3.0 mph4.8 mph -- 0.5 mph0.8 mph
Humidity 100% 98% 99%
Pressure 30.11 in1019.60 in 30.00 in1015.90 in -
Precipitation 0.41 in10.40 in - -
Hour Temp Dew Point Humidity Winds Wind Gusts Pressure Precip Precip Rate Daily Precip Total
12:00 AM 55.3°F12.9°C 54.7°F12.6°C 98% Calm Calm -- 30.02 in1016.6 mb 0.00 in0.0 mm 0.00 in/hr0.0 mm/hr 0.00 in0.0 mm
12:10 AM 55.3°F12.9°C 54.7°F12.6°C 98% Calm Calm -- 30.02 in1016.6 mb 0.00 in0.0 mm 0.00 in/hr0.0 mm/hr 0.00 in0.0 mm
12:20 AM 55.3°F12.9°C 54.7°F12.6°C 98% Calm Calm -- 30.02 in1016.6 mb 0.00 in0.0 mm 0.00 in/hr0.0 mm/hr 0.00 in0.0 mm
12:30 AM 55.3°F12.9°C 54.7°F12.6°C 98% Calm Calm 1.0 mph1.6 kmh 30.02 in1016.6 mb 0.00 in0.0 mm 0.00 in/hr0.0 mm/hr 0.00 in0.0 mm
12:40 AM 55.2°F12.9°C 54.6°F12.6°C 98% Calm Calm 1.0 mph1.6 kmh 30.02 in1016.6 mb 0.01 in0.3 mm 0.06 in/hr1.5 mm/hr 0.01 in0.3 mm
12:50 AM 55.2°F12.9°C 54.6°F12.6°C 98% Calm Calm -- 30.02 in1016.6 mb 0.00 in0.0 mm 0.00 in/hr0.0 mm/hr 0.01 in0.3 mm
01:00 AM 55.1°F12.8°C 54.5°F12.5°C 98% Calm Calm 2.0 mph3.2 kmh 30.02 in1016.6 mb 0.00 in0.0 mm 0.00 in/hr0.0 mm/hr 0.01 in0.3 mm
01:10 AM 55.0°F12.8°C 54.7°F12.6°C 99% Calm Calm -- 30.02 in1016.6 mb 0.01 in0.3 mm 0.06 in/hr1.5 mm/hr 0.02 in0.5 mm
01:20 AM 55.1°F12.8°C 54.8°F12.7°C 99% Calm Calm -- 30.02 in1016.6 mb 0.00 in0.0 mm 0.00 in/hr0.0 mm/hr 0.02 in0.5 mm
01:30 AM 55.0°F12.8°C 54.8°F12.7°C 99% Calm Calm -- 30.02 in1016.6 mb 0.00 in0.0 mm 0.00 in/hr0.0 mm/hr 0.02 in0.5 mm
01:40 AM 55.0°F12.8°C 54.7°F12.6°C 99% Calm Calm -- 30.02 in1016.6 mb 0.01 in0.3 mm 0.06 in/hr1.5 mm/hr 0.03 in0.8 mm
01:50 AM 55.0°F12.8°C 54.7°F12.6°C 99% Calm Calm -- 30.02 in1016.6 mb 0.00 in0.0 mm 0.00 in/hr0.0 mm/hr 0.03 in0.8 mm
02:00 AM 55.0°F12.8°C 54.7°F12.6°C 99% Calm Calm -- 30.02 in1016.6 mb 0.00 in0.0 mm 0.00 in/hr0.0 mm/hr 0.03 in0.8 mm
02:10 AM 55.0°F12.8°C 54.7°F12.6°C 99% Calm Calm -- 30.02 in1016.6 mb 0.00 in0.0 mm 0.00 in/hr0.0 mm/hr 0.03 in0.8 mm
02:20 AM 55.0°F12.8°C 54.7°F12.6°C 99% Calm Calm -- 30.02 in1016.6 mb 0.00 in0.0 mm 0.00 in/hr0.0 mm/hr 0.03 in0.8 mm
02:30 AM 55.0°F12.8°C 54.7°F12.6°C 99% Calm Calm -- 30.02 in1016.6 mb 0.00 in0.0 mm 0.00 in/hr0.0 mm/hr 0.03 in0.8 mm
02:40 AM 54.8°F12.7°C 54.5°F12.5°C 99% Calm Calm -- 30.01 in1016.3 mb 0.00 in0.0 mm 0.00 in/hr0.0 mm/hr 0.03 in0.8 mm
02:50 AM 54.8°F12.7°C 54.5°F12.5°C 99% Calm Calm -- 30.01 in1016.3 mb 0.00 in0.0 mm 0.00 in/hr0.0 mm/hr 0.03 in0.8 mm
03:00 AM 54.7°F12.6°C 54.4°F12.4°C 99% Calm Calm -- 30.01 in1016.3 mb 0.00 in0.0 mm 0.00 in/hr0.0 mm/hr 0.03 in0.8 mm
03:10 AM 54.7°F12.6°C 54.4°F12.4°C 99% Calm Calm -- 30.01 in1016.3 mb 0.00 in0.0 mm 0.00 in/hr0.0 mm/hr 0.03 in0.8 mm
03:20 AM 54.6°F12.6°C 54.4°F12.4°C 99% Calm Calm -- 30.00 in1015.9 mb 0.00 in0.0 mm 0.00 in/hr0.0 mm/hr 0.03 in0.8 mm
03:30 AM 54.6°F12.6°C 54.3°F12.4°C 99% Calm Calm 2.0 mph3.2 kmh 30.00 in1015.9 mb 0.00 in0.0 mm 0.00 in/hr0.0 mm/hr 0.03 in0.8 mm
03:40 AM 54.6°F12.6°C 54.3°F12.4°C 99% Calm Calm 1.0 mph1.6 kmh 30.00 in1015.9 mb 0.01 in0.3 mm 0.06 in/hr1.5 mm/hr 0.04 in1.0 mm
03:50 AM 54.5°F12.5°C 54.2°F12.3°C 99% Calm Calm -- 30.00 in1015.9 mb 0.00 in0.0 mm 0.00 in/hr0.0 mm/hr 0.04 in1.0 mm
04:00 AM 54.5°F12.5°C 54.2°F12.3°C 99% Calm Calm -- 30.00 in1015.9 mb 0.00 in0.0 mm 0.00 in/hr0.0 mm/hr 0.04 in1.0 mm
04:10 AM 54.5°F12.5°C 54.2°F12.3°C 99% Calm Calm -- 30.01 in1016.3 mb 0.00 in0.0 mm 0.00 in/hr0.0 mm/hr 0.04 in1.0 mm
04:20 AM 54.4°F12.4°C 54.2°F12.3°C 99% Calm Calm -- 30.01 in1016.3 mb 0.00 in0.0 mm 0.00 in/hr0.0 mm/hr 0.04 in1.0 mm
04:30 AM 54.4°F12.4°C 54.1°F12.3°C 99% Calm Calm -- 30.01 in1016.3 mb 0.00 in0.0 mm 0.00 in/hr0.0 mm/hr 0.04 in1.0 mm
04:40 AM 54.4°F12.4°C 54.1°F12.3°C 99% Calm Calm -- 30.01 in1016.3 mb 0.00 in0.0 mm 0.00 in/hr0.0 mm/hr 0.04 in1.0 mm
04:50 AM 54.4°F12.4°C 54.1°F12.3°C 99% Calm Calm -- 30.01 in1016.3 mb 0.00 in0.0 mm 0.00 in/hr0.0 mm/hr 0.04 in1.0 mm
05:00 AM 54.3°F12.4°C 54.1°F12.3°C 99% Calm Calm 1.0 mph1.6 kmh 30.01 in1016.3 mb 0.00 in0.0 mm 0.00 in/hr0.0 mm/hr 0.04 in1.0 mm
05:10 AM 54.3°F12.4°C 54.0°F12.2°C 99% Calm Calm -- 30.01 in1016.3 mb 0.00 in0.0 mm 0.00 in/hr0.0 mm/hr 0.04 in1.0 mm
05:20 AM 54.2°F12.3°C 53.9°F12.2°C 99% Calm Calm -- 30.01 in1016.3 mb 0.00 in0.0 mm 0.00 in/hr0.0 mm/hr 0.04 in1.0 mm
05:30 AM 54.2°F12.3°C 53.9°F12.2°C 99% Calm Calm -- 30.02 in1016.6 mb 0.00 in0.0 mm 0.00 in/hr0.0 mm/hr 0.04 in1.0 mm
05:40 AM 54.1°F12.3°C 53.8°F12.1°C 99% Calm Calm -- 30.02 in1016.6 mb 0.00 in0.0 mm 0.00 in/hr0.0 mm/hr 0.04 in1.0 mm
05:50 AM 54.1°F12.3°C 53.8°F12.1°C 99% Calm Calm 1.0 mph1.6 kmh 30.02 in1016.6 mb 0.00 in0.0 mm 0.00 in/hr0.0 mm/hr 0.04 in1.0 mm
06:00 AM 54.0°F12.2°C 53.7°F12.1°C 99% Calm Calm 1.0 mph1.6 kmh 30.03 in1016.9 mb 0.00 in0.0 mm 0.00 in/hr0.0 mm/hr 0.04 in1.0 mm
06:10 AM 54.0°F12.2°C 53.7°F12.1°C 99% Calm Calm -- 30.03 in1016.9 mb 0.00 in0.0 mm 0.00 in/hr0.0 mm/hr 0.04 in1.0 mm
06:20 AM 54.0°F12.2°C 53.7°F12.1°C 99% Calm Calm -- 30.03 in1016.9 mb 0.00 in0.0 mm 0.00 in/hr0.0 mm/hr 0.04 in1.0 mm
06:30 AM 54.0°F12.2°C 53.7°F12.1°C 99% Calm Calm -- 30.03 in1016.9 mb 0.00 in0.0 mm 0.00 in/hr0.0 mm/hr 0.04 in1.0 mm
06:40 AM 54.0°F12.2°C 53.7°F12.1°C 99% Calm Calm 1.0 mph1.6 kmh 30.03 in1016.9 mb 0.00 in0.0 mm 0.00 in/hr0.0 mm/hr 0.04 in1.0 mm
06:50 AM 54.0°F12.2°C 53.7°F12.1°C 99% Calm Calm -- 30.03 in1016.9 mb 0.00 in0.0 mm 0.00 in/hr0.0 mm/hr 0.04 in1.0 mm
07:00 AM 54.0°F12.2°C 53.7°F12.1°C 99% Calm Calm -- 30.03 in1016.9 mb 0.00 in0.0 mm 0.00 in/hr0.0 mm/hr 0.04 in1.0 mm
07:10 AM 54.0°F12.2°C 53.7°F12.1°C 99% Calm Calm -- 30.03 in1016.9 mb 0.00 in0.0 mm 0.00 in/hr0.0 mm/hr 0.04 in1.0 mm
07:20 AM 54.0°F12.2°C 53.7°F12.1°C 99% Calm Calm -- 30.04 in1017.3 mb 0.00 in0.0 mm 0.00 in/hr0.0 mm/hr 0.04 in1.0 mm
07:30 AM 54.1°F12.3°C 53.8°F12.1°C 99% Calm Calm -- 30.04 in1017.3 mb 0.01 in0.3 mm 0.06 in/hr1.5 mm/hr 0.05 in1.3 mm
07:40 AM 54.1°F12.3°C 53.9°F12.2°C 99% Calm Calm 1.0 mph1.6 kmh 30.04 in1017.3 mb 0.00 in0.0 mm 0.00 in/hr0.0 mm/hr 0.05 in1.3 mm
07:50 AM 54.2°F12.3°C 53.9°F12.2°C 99% Calm Calm -- 30.04 in1017.3 mb 0.00 in0.0 mm 0.00 in/hr0.0 mm/hr 0.05 in1.3 mm
08:00 AM 54.4°F12.4°C 54.1°F12.3°C 99% Calm Calm -- 30.04 in1017.3 mb 0.00 in0.0 mm 0.00 in/hr0.0 mm/hr 0.05 in1.3 mm
08:10 AM 54.4°F12.4°C 54.1°F12.3°C 99% Calm Calm -- 30.04 in1017.3 mb 0.00 in0.0 mm 0.00 in/hr0.0 mm/hr 0.05 in1.3 mm
08:20 AM 54.5°F12.5°C 54.2°F12.3°C 99% Calm Calm 1.0 mph1.6 kmh 30.04 in1017.3 mb 0.00 in0.0 mm 0.00 in/hr0.0 mm/hr 0.05 in1.3 mm
08:30 AM 54.5°F12.5°C 54.2°F12.3°C 99% Calm Calm 1.0 mph1.6 kmh 30.04 in1017.3 mb 0.00 in0.0 mm 0.00 in/hr0.0 mm/hr 0.05 in1.3 mm
08:40 AM 54.5°F12.5°C 54.2°F12.3°C 99% Calm Calm 1.0 mph1.6 kmh 30.05 in1017.6 mb 0.00 in0.0 mm 0.00 in/hr0.0 mm/hr 0.05 in1.3 mm
08:50 AM 54.5°F12.5°C 54.2°F12.3°C 99% Calm Calm 1.0 mph1.6 kmh 30.05 in1017.6 mb 0.00 in0.0 mm 0.00 in/hr0.0 mm/hr 0.05 in1.3 mm
09:00 AM 54.5°F12.5°C 54.2°F12.3°C 99% Calm Calm -- 30.05 in1017.6 mb 0.01 in0.3 mm 0.01 in/hr0.3 mm/hr 0.06 in1.5 mm
09:10 AM 54.5°F12.5°C 54.2°F12.3°C 99% Calm Calm 1.0 mph1.6 kmh 30.06 in1017.9 mb 0.02 in0.5 mm 0.12 in/hr3.0 mm/hr 0.07 in1.8 mm
09:20 AM 54.4°F12.4°C 54.1°F12.3°C 99% Calm Calm 1.0 mph1.6 kmh 30.06 in1017.9 mb 0.01 in0.3 mm 0.06 in/hr1.5 mm/hr 0.08 in2.0 mm
09:30 AM 54.5°F12.5°C 54.2°F12.3°C 99% Calm Calm -- 30.06 in1017.9 mb 0.02 in0.5 mm 0.12 in/hr3.0 mm/hr 0.10 in2.5 mm
09:40 AM 54.6°F12.6°C 54.3°F12.4°C 99% Calm Calm -- 30.06 in1017.9 mb 0.01 in0.3 mm 0.06 in/hr1.5 mm/hr 0.11 in2.8 mm
09:50 AM 54.8°F12.7°C 54.6°F12.6°C 99% Calm Calm 2.0 mph3.2 kmh 30.07 in1018.3 mb 0.01 in0.3 mm 0.06 in/hr1.5 mm/hr 0.12 in3.0 mm
10:00 AM 55.2°F12.9°C 55.2°F12.9°C 100% Calm Calm 3.0 mph4.8 kmh 30.07 in1018.3 mb 0.01 in0.3 mm 0.01 in/hr0.3 mm/hr 0.13 in3.3 mm
10:10 AM 55.2°F12.9°C 54.9°F12.7°C 99% Calm Calm -- 30.07 in1018.3 mb 0.00 in0.0 mm 0.00 in/hr0.0 mm/hr 0.13 in3.3 mm
10:20 AM 55.3°F12.9°C 55.0°F12.8°C 99% Calm Calm 1.0 mph1.6 kmh 30.07 in1018.3 mb 0.00 in0.0 mm 0.00 in/hr0.0 mm/hr 0.13 in3.3 mm
10:30 AM 55.2°F12.9°C 54.9°F12.7°C 99% Calm Calm 1.0 mph1.6 kmh 30.07 in1018.3 mb 0.00 in0.0 mm 0.00 in/hr0.0 mm/hr 0.13 in3.3 mm
10:40 AM 55.3°F12.9°C 55.0°F12.8°C 99% Calm Calm -- 30.07 in1018.3 mb 0.00 in0.0 mm 0.00 in/hr0.0 mm/hr 0.13 in3.3 mm
10:50 AM 55.3°F12.9°C 55.1°F12.8°C 99% Calm Calm 2.0 mph3.2 kmh 30.07 in1018.3 mb 0.00 in0.0 mm 0.00 in/hr0.0 mm/hr 0.13 in3.3 mm
11:00 AM 55.4°F13.0°C 55.1°F12.8°C 99% Calm Calm 2.0 mph3.2 kmh 30.07 in1018.3 mb 0.00 in0.0 mm 0.00 in/hr0.0 mm/hr 0.13 in3.3 mm
11:10 AM 55.4°F13.0°C 55.2°F12.9°C 99% Calm Calm -- 30.07 in1018.3 mb 0.00 in0.0 mm 0.00 in/hr0.0 mm/hr 0.13 in3.3 mm
11:20 AM 55.3°F12.9°C 55.0°F12.8°C 99% Calm Calm -- 30.07 in1018.3 mb 0.00 in0.0 mm 0.00 in/hr0.0 mm/hr 0.13 in3.3 mm
11:30 AM 55.4°F13.0°C 55.1°F12.8°C 99% Calm Calm -- 30.07 in1018.3 mb 0.01 in0.3 mm 0.06 in/hr1.5 mm/hr 0.14 in3.6 mm
11:40 AM 55.3°F12.9°C 55.1°F12.8°C 99% Calm Calm -- 30.07 in1018.3 mb 0.01 in0.3 mm 0.06 in/hr1.5 mm/hr 0.15 in3.8 mm
11:50 AM 55.3°F12.9°C 55.0°F12.8°C 99% Calm Calm -- 30.07 in1018.3 mb 0.01 in0.3 mm 0.06 in/hr1.5 mm/hr 0.16 in4.1 mm
12:00 PM 55.3°F12.9°C 55.0°F12.8°C 99% Calm Calm 1.0 mph1.6 kmh 30.07 in1018.3 mb 0.01 in0.3 mm 0.01 in/hr0.3 mm/hr 0.16 in4.1 mm
12:10 PM 55.3°F12.9°C 55.0°F12.8°C 99% Calm Calm 1.0 mph1.6 kmh 30.07 in1018.3 mb 0.00 in0.0 mm 0.00 in/hr0.0 mm/hr 0.16 in4.1 mm
12:20 PM 55.4°F13.0°C 55.1°F12.8°C 99% Calm Calm -- 30.07 in1018.3 mb 0.01 in0.3 mm 0.06 in/hr1.5 mm/hr 0.17 in4.3 mm
12:30 PM 55.6°F13.1°C 55.3°F12.9°C 99% Calm Calm -- 30.07 in1018.3 mb 0.00 in0.0 mm 0.00 in/hr0.0 mm/hr 0.17 in4.3 mm
12:40 PM 55.7°F13.2°C 55.4°F13.0°C 99% Calm Calm 1.0 mph1.6 kmh 30.07 in1018.3 mb 0.00 in0.0 mm 0.00 in/hr0.0 mm/hr 0.17 in4.3 mm
12:50 PM 55.8°F13.2°C 55.5°F13.1°C 99% Calm Calm -- 30.07 in1018.3 mb 0.00 in0.0 mm 0.00 in/hr0.0 mm/hr 0.17 in4.3 mm
01:00 PM 55.7°F13.2°C 55.4°F13.0°C 99% Calm Calm -- 30.07 in1018.3 mb 0.01 in0.3 mm 0.01 in/hr0.3 mm/hr 0.18 in4.6 mm
01:10 PM 55.6°F13.1°C 55.3°F12.9°C 99% Calm Calm -- 30.06 in1017.9 mb 0.02 in0.5 mm 0.12 in/hr3.0 mm/hr 0.20 in5.1 mm
01:20 PM 55.5°F13.1°C 55.2°F12.9°C 99% Calm Calm -- 30.06 in1017.9 mb 0.00 in0.0 mm 0.00 in/hr0.0 mm/hr 0.20 in5.1 mm
01:30 PM 55.5°F13.1°C 55.2°F12.9°C 99% Calm Calm -- 30.06 in1017.9 mb 0.01 in0.3 mm 0.06 in/hr1.5 mm/hr 0.21 in5.3 mm
01:40 PM 55.5°F13.1°C 55.2°F12.9°C 99% Calm Calm 1.0 mph1.6 kmh 30.06 in1017.9 mb 0.00 in0.0 mm 0.00 in/hr0.0 mm/hr 0.21 in5.3 mm
01:50 PM 55.5°F13.1°C 55.2°F12.9°C 99% Calm Calm -- 30.06 in1017.9 mb 0.00 in0.0 mm 0.00 in/hr0.0 mm/hr 0.21 in5.3 mm
02:00 PM 55.4°F13.0°C 55.1°F12.8°C 99% Calm Calm -- 30.06 in1017.9 mb 0.00 in0.0 mm 0.00 in/hr0.0 mm/hr 0.21 in5.3 mm
02:10 PM 55.5°F13.1°C 55.2°F12.9°C 99% Calm Calm -- 30.06 in1017.9 mb 0.01 in0.3 mm 0.06 in/hr1.5 mm/hr 0.22 in5.6 mm
02:20 PM 55.5°F13.1°C 55.2°F12.9°C 99% 1.0 mph W1.6 kmh W 3.0 mph4.8 kmh 30.06 in1017.9 mb 0.00 in0.0 mm 0.00 in/hr0.0 mm/hr 0.22 in5.6 mm
02:30 PM 55.6°F13.1°C 55.3°F12.9°C 99% Calm Calm -- 30.05 in1017.6 mb 0.01 in0.3 mm 0.06 in/hr1.5 mm/hr 0.23 in5.8 mm
02:40 PM 55.7°F13.2°C 55.4°F13.0°C 99% Calm Calm -- 30.05 in1017.6 mb 0.00 in0.0 mm 0.00 in/hr0.0 mm/hr 0.23 in5.8 mm
02:50 PM 55.8°F13.2°C 55.5°F13.1°C 99% Calm Calm -- 30.05 in1017.6 mb 0.01 in0.3 mm 0.06 in/hr1.5 mm/hr 0.24 in6.1 mm
03:00 PM 56.0°F13.3°C 55.7°F13.2°C 99% Calm Calm 1.0 mph1.6 kmh 30.05 in1017.6 mb 0.00 in0.0 mm 0.00 in/hr0.0 mm/hr 0.24 in6.1 mm
03:10 PM 56.1°F13.4°C 55.9°F13.3°C 99% 1.0 mph N1.6 kmh N 2.0 mph3.2 kmh 30.05 in1017.6 mb 0.00 in0.0 mm 0.00 in/hr0.0 mm/hr 0.24 in6.1 mm
03:20 PM 56.0°F13.3°C 55.7°F13.2°C 99% Calm Calm 1.0 mph1.6 kmh 30.05 in1017.6 mb 0.00 in0.0 mm 0.00 in/hr0.0 mm/hr 0.24 in6.1 mm
03:30 PM 55.8°F13.2°C 55.5°F13.1°C 99% Calm Calm -- 30.05 in1017.6 mb 0.00 in0.0 mm 0.00 in/hr0.0 mm/hr 0.24 in6.1 mm
03:40 PM 55.7°F13.2°C 55.4°F13.0°C 99% Calm Calm 2.0 mph3.2 kmh 30.05 in1017.6 mb 0.00 in0.0 mm 0.00 in/hr0.0 mm/hr 0.24 in6.1 mm
03:50 PM 55.6°F13.1°C 55.3°F12.9°C 99% Calm Calm -- 30.05 in1017.6 mb 0.00 in0.0 mm 0.00 in/hr0.0 mm/hr 0.24 in6.1 mm
04:00 PM 55.7°F13.2°C 55.4°F13.0°C 99% Calm Calm 1.0 mph1.6 kmh 30.05 in1017.6 mb 0.00 in0.0 mm 0.00 in/hr0.0 mm/hr 0.24 in6.1 mm
04:10 PM 55.5°F13.1°C 55.2°F12.9°C 99% 1.0 mph NNW1.6 kmh NNW 2.0 mph3.2 kmh 30.05 in1017.6 mb 0.00 in0.0 mm 0.00 in/hr0.0 mm/hr 0.24 in6.1 mm
04:20 PM 55.5°F13.1°C 55.2°F12.9°C 99% Calm Calm -- 30.05 in1017.6 mb 0.00 in0.0 mm 0.00 in/hr0.0 mm/hr 0.24 in6.1 mm
04:30 PM 55.4°F13.0°C 55.1°F12.8°C 99% Calm Calm -- 30.06 in1017.9 mb 0.01 in0.3 mm 0.06 in/hr1.5 mm/hr 0.25 in6.4 mm
04:40 PM 55.2°F12.9°C 54.9°F12.7°C 99% Calm Calm 1.0 mph1.6 kmh 30.06 in1017.9 mb 0.00 in0.0 mm 0.00 in/hr0.0 mm/hr 0.25 in6.4 mm
04:50 PM 55.1°F12.8°C 54.8°F12.7°C 99% Calm Calm -- 30.06 in1017.9 mb 0.00 in0.0 mm 0.00 in/hr0.0 mm/hr 0.25 in6.4 mm
05:00 PM 55.1°F12.8°C 54.8°F12.7°C 99% Calm Calm -- 30.06 in1017.9 mb 0.00 in0.0 mm 0.00 in/hr0.0 mm/hr 0.25 in6.4 mm
05:10 PM 55.1°F12.8°C 54.8°F12.7°C 99% Calm Calm 1.0 mph1.6 kmh 30.06 in1017.9 mb 0.00 in0.0 mm 0.00 in/hr0.0 mm/hr 0.25 in6.4 mm
05:20 PM 55.0°F12.8°C 54.8°F12.7°C 99% Calm Calm 1.0 mph1.6 kmh 30.06 in1017.9 mb 0.00 in0.0 mm 0.00 in/hr0.0 mm/hr 0.25 in6.4 mm
05:30 PM 55.0°F12.8°C 54.7°F12.6°C 99% Calm Calm 2.0 mph3.2 kmh 30.07 in1018.3 mb 0.00 in0.0 mm 0.00 in/hr0.0 mm/hr 0.25 in6.4 mm
05:40 PM 54.9°F12.7°C 54.6°F12.6°C 99% Calm Calm -- 30.07 in1018.3 mb 0.00 in0.0 mm 0.00 in/hr0.0 mm/hr 0.25 in6.4 mm
05:50 PM 54.8°F12.7°C 54.5°F12.5°C 99% Calm Calm 1.0 mph1.6 kmh 30.07 in1018.3 mb 0.00 in0.0 mm 0.00 in/hr0.0 mm/hr 0.25 in6.4 mm
06:00 PM 54.7°F12.6°C 54.4°F12.4°C 99% Calm Calm -- 30.07 in1018.3 mb 0.00 in0.0 mm 0.00 in/hr0.0 mm/hr 0.25 in6.4 mm
06:10 PM 54.6°F12.6°C 54.3°F12.4°C 99% Calm Calm 1.0 mph1.6 kmh 30.07 in1018.3 mb 0.01 in0.3 mm 0.06 in/hr1.5 mm/hr 0.26 in6.6 mm
06:20 PM 54.4°F12.4°C 54.1°F12.3°C 99% Calm Calm 1.0 mph1.6 kmh 30.08 in1018.6 mb 0.00 in0.0 mm 0.00 in/hr0.0 mm/hr 0.26 in6.6 mm
06:30 PM 54.3°F12.4°C 54.0°F12.2°C 99% Calm Calm -- 30.09 in1019.0 mb 0.00 in0.0 mm 0.00 in/hr0.0 mm/hr 0.26 in6.6 mm
06:40 PM 54.2°F12.3°C 53.9°F12.2°C 99% Calm Calm -- 30.09 in1019.0 mb 0.01 in0.3 mm 0.06 in/hr1.5 mm/hr 0.27 in6.9 mm
06:50 PM 54.2°F12.3°C 53.9°F12.2°C 99% Calm Calm -- 30.09 in1019.0 mb 0.01 in0.3 mm 0.06 in/hr1.5 mm/hr 0.28 in7.1 mm
07:00 PM 54.2°F12.3°C 53.9°F12.2°C 99% Calm Calm -- 30.09 in1019.0 mb 0.01 in0.3 mm 0.01 in/hr0.3 mm/hr 0.29 in7.4 mm
07:10 PM 54.2°F12.3°C 53.9°F12.2°C 99% Calm Calm -- 30.10 in1019.3 mb 0.00 in0.0 mm 0.00 in/hr0.0 mm/hr 0.29 in7.4 mm
07:20 PM 54.2°F12.3°C 53.9°F12.2°C 99% Calm Calm -- 30.10 in1019.3 mb 0.01 in0.3 mm 0.06 in/hr1.5 mm/hr 0.30 in7.6 mm
07:30 PM 54.1°F12.3°C 53.8°F12.1°C 99% Calm Calm -- 30.09 in1019.0 mb 0.01 in0.3 mm 0.06 in/hr1.5 mm/hr 0.31 in7.9 mm
07:40 PM 54.1°F12.3°C 53.8°F12.1°C 99% Calm Calm -- 30.09 in1019.0 mb 0.00 in0.0 mm 0.00 in/hr0.0 mm/hr 0.31 in7.9 mm
07:50 PM 54.1°F12.3°C 53.8°F12.1°C 99% Calm Calm 1.0 mph1.6 kmh 30.10 in1019.3 mb 0.00 in0.0 mm 0.00 in/hr0.0 mm/hr 0.31 in7.9 mm
08:00 PM 54.1°F12.3°C 53.9°F12.2°C 99% Calm Calm -- 30.09 in1019.0 mb 0.01 in0.3 mm 0.01 in/hr0.3 mm/hr 0.32 in8.1 mm
08:10 PM 54.2°F12.3°C 53.9°F12.2°C 99% Calm Calm -- 30.10 in1019.3 mb 0.00 in0.0 mm 0.00 in/hr0.0 mm/hr 0.32 in8.1 mm
08:20 PM 54.1°F12.3°C 53.8°F12.1°C 99% Calm Calm 1.0 mph1.6 kmh 30.10 in1019.3 mb 0.00 in0.0 mm 0.00 in/hr0.0 mm/hr 0.32 in8.1 mm
08:30 PM 54.1°F12.3°C 53.8°F12.1°C 99% Calm Calm 1.0 mph1.6 kmh 30.10 in1019.3 mb 0.01 in0.3 mm 0.06 in/hr1.5 mm/hr 0.33 in8.4 mm
08:40 PM 54.1°F12.3°C 53.8°F12.1°C 99% Calm Calm -- 30.10 in1019.3 mb 0.00 in0.0 mm 0.00 in/hr0.0 mm/hr 0.33 in8.4 mm
08:50 PM 54.1°F12.3°C 53.8°F12.1°C 99% Calm Calm -- 30.10 in1019.3 mb 0.00 in0.0 mm 0.00 in/hr0.0 mm/hr 0.33 in8.4 mm
09:00 PM 54.1°F12.3°C 53.8°F12.1°C 99% Calm Calm -- 30.10 in1019.3 mb 0.00 in0.0 mm 0.00 in/hr0.0 mm/hr 0.33 in8.4 mm
09:10 PM 54.2°F12.3°C 53.9°F12.2°C 99% Calm Calm 2.0 mph3.2 kmh 30.10 in1019.3 mb 0.00 in0.0 mm 0.00 in/hr0.0 mm/hr 0.33 in8.4 mm
09:20 PM 54.1°F12.3°C 53.8°F12.1°C 99% Calm Calm -- 30.10 in1019.3 mb 0.00 in0.0 mm 0.00 in/hr0.0 mm/hr 0.33 in8.4 mm
09:30 PM 54.1°F12.3°C 53.8°F12.1°C 99% Calm Calm -- 30.10 in1019.3 mb 0.00 in0.0 mm 0.00 in/hr0.0 mm/hr 0.33 in8.4 mm
09:40 PM 54.1°F12.3°C 54.1°F12.3°C 100% Calm Calm 1.0 mph1.6 kmh 30.10 in1019.3 mb 0.00 in0.0 mm 0.00 in/hr0.0 mm/hr 0.33 in8.4 mm
09:50 PM 54.1°F12.3°C 54.1°F12.3°C 100% Calm Calm 1.0 mph1.6 kmh 30.10 in1019.3 mb 0.01 in0.3 mm 0.06 in/hr1.5 mm/hr 0.34 in8.6 mm
10:00 PM 54.1°F12.3°C 54.1°F12.3°C 100% Calm Calm 2.0 mph3.2 kmh 30.10 in1019.3 mb 0.00 in0.0 mm 0.00 in/hr0.0 mm/hr 0.34 in8.6 mm
10:10 PM 54.1°F12.3°C 54.1°F12.3°C 100% Calm Calm -- 30.10 in1019.3 mb 0.00 in0.0 mm 0.00 in/hr0.0 mm/hr 0.34 in8.6 mm
10:20 PM 54.1°F12.3°C 54.1°F12.3°C 100% 1.0 mph NNW1.6 kmh NNW 1.0 mph1.6 kmh 30.10 in1019.3 mb 0.00 in0.0 mm 0.00 in/hr0.0 mm/hr 0.34 in8.6 mm
10:30 PM 54.1°F12.3°C 54.1°F12.3°C 100% 1.0 mph NW1.6 kmh NW 3.0 mph4.8 kmh 30.11 in1019.6 mb 0.00 in0.0 mm 0.00 in/hr0.0 mm/hr 0.34 in8.6 mm
10:40 PM 54.1°F12.3°C 54.1°F12.3°C 100% Calm Calm 3.0 mph4.8 kmh 30.10 in1019.3 mb 0.00 in0.0 mm 0.00 in/hr0.0 mm/hr 0.34 in8.6 mm
10:50 PM 54.0°F12.2°C 54.0°F12.2°C 100% Calm Calm -- 30.11 in1019.6 mb 0.01 in0.3 mm 0.06 in/hr1.5 mm/hr 0.35 in8.9 mm
11:00 PM 54.0°F12.2°C 54.0°F12.2°C 100% Calm Calm 1.0 mph1.6 kmh 30.10 in1019.3 mb 0.02 in0.5 mm 0.02 in/hr0.5 mm/hr 0.37 in9.4 mm
11:10 PM 54.0°F12.2°C 54.0°F12.2°C 100% Calm Calm 1.0 mph1.6 kmh 30.11 in1019.6 mb 0.01 in0.3 mm 0.06 in/hr1.5 mm/hr 0.38 in9.7 mm
11:20 PM 54.0°F12.2°C 54.0°F12.2°C 100% Calm Calm -- 30.11 in1019.6 mb 0.00 in0.0 mm 0.00 in/hr0.0 mm/hr 0.38 in9.7 mm
11:30 PM 54.0°F12.2°C 54.0°F12.2°C 100% Calm Calm 1.0 mph1.6 kmh 30.11 in1019.6 mb 0.00 in0.0 mm 0.00 in/hr0.0 mm/hr 0.38 in9.7 mm
11:40 PM 54.0°F12.2°C 54.0°F12.2°C 100% Calm Calm 1.0 mph1.6 kmh 30.10 in1019.3 mb 0.00 in0.0 mm 0.00 in/hr0.0 mm/hr 0.38 in9.7 mm
11:50 PM 53.9°F12.2°C 53.6°F12.0°C 99% Calm Calm 1.0 mph1.6 kmh 30.11 in1019.6 mb 0.01 in0.3 mm 0.06 in/hr1.5 mm/hr 0.39 in9.9 mm